Kimberley, Canada
Current Conditions -  °F | °C
As of 3:00 AM on Saturday 22 Nov 2014 (Local Time) from CYXC Reporting Station
Light Rain Light Rain  
Wind Chill: 29°   Ceiling: 900
Heat Index: 34°   Visibility: 8mi
Dew Point: 32°   Wind: 6mph
Humidity: 93%   Direction: 140°SE
Pressure: 29.27"   Gusts: NA
Location:  49.68°N, 115.98°W
Report Text: CYXC 221000Z 14005KT 8SM -RA BKN009 BKN015 OVC050 01/M00 A2927 RMK SF5SC1SC2 BR SLP934
Loading
Personal Weather Stations






























Interactive Weather Map New forecast layout! Learn more

10-Day Weather Forecast

Advertisements
Track Severe Weather on mobile